Time;durP1;ratioP1;P1;durP2;ratioP2;P2;SDS_P1;SDS_P2;PMS_P1;PMS_P2;Temp;Humidity;BMP_temperature;BMP_pressure;BME280_temperature;BME280_humidity;BME280_pressure;Samples;Min_cycle;Max_cycle;Signal;HPM_P1;HPM_P2
2022/05/12 00:02:04;;;;;;;2.67;2.47;;;;;;;21.39;71.28;100046.78;4999919;28;20279;-74
2022/05/12 00:04:31;;;;;;;2.57;2.37;;;;;;;21.31;71.63;100050.69;5002014;28;20220;-75
2022/05/12 00:06:58;;;;;;;2.60;2.40;;;;;;;21.25;71.98;100052.81;4998310;28;20727;-75
2022/05/12 00:09:25;;;;;;;2.40;2.30;;;;;;;21.17;72.54;100051.50;4999170;28;20242;-74
2022/05/12 00:11:50;;;;;;;3.20;3.00;;;;;;;21.12;72.09;100052.66;5001826;28;20230;-76
2022/05/12 00:14:16;;;;;;;2.87;2.63;;;;;;;21.09;72.00;100052.88;5001427;28;20192;-74
2022/05/12 00:16:42;;;;;;;3.10;2.80;;;;;;;21.07;71.65;100062.63;4999762;28;20632;-74
2022/05/12 00:19:07;;;;;;;2.70;2.33;;;;;;;21.04;71.81;100073.31;5009837;28;20185;-75
2022/05/12 00:21:34;;;;;;;3.93;2.53;;;;;;;21.02;71.91;100062.88;4999863;28;20193;-75
2022/05/12 00:23:59;;;;;;;2.90;2.70;;;;;;;20.99;71.51;100063.88;4999920;28;20560;-75
2022/05/12 00:26:29;;;;;;;2.43;2.23;;;;;;;20.98;71.93;100066.63;5001794;28;20209;-74
2022/05/12 00:29:00;;;;;;;2.80;2.60;;;;;;;20.96;71.76;100077.22;5005431;28;20655;-74
2022/05/12 00:31:27;;;;;;;3.43;2.43;;;;;;;20.94;72.07;100075.59;5001493;28;20226;-75
2022/05/12 00:33:52;;;;;;;2.90;2.70;;;;;;;20.94;72.58;100072.97;5004400;28;20216;-75
2022/05/12 00:36:18;;;;;;;2.97;2.77;;;;;;;20.92;72.70;100072.22;5002978;28;20223;-77
2022/05/12 00:38:44;;;;;;;2.50;2.30;;;;;;;20.89;72.58;100088.16;5002058;28;20191;-75
2022/05/12 00:41:10;;;;;;;2.73;2.53;;;;;;;20.90;72.72;100088.09;5005216;28;20232;-75
2022/05/12 00:43:40;;;;;;;3.50;2.47;;;;;;;20.86;72.73;100083.94;5000741;28;20203;-75
2022/05/12 00:46:11;;;;;;;3.33;2.90;;;;;;;20.82;73.12;100088.50;5001861;28;20213;-75
2022/05/12 00:48:37;;;;;;;2.90;2.70;;;;;;;20.76;73.61;100090.63;4997678;28;20187;-76
2022/05/12 00:51:05;;;;;;;4.20;2.73;;;;;;;20.69;73.81;100093.56;4998794;28;20813;-77
2022/05/12 00:53:33;;;;;;;3.20;3.00;;;;;;;20.62;74.04;100097.47;5003118;28;20189;-75
2022/05/12 00:55:59;;;;;;;3.97;2.97;;;;;;;20.57;73.78;100099.47;5000007;28;20211;-76
2022/05/12 00:58:27;;;;;;;2.53;2.33;;;;;;;20.53;74.49;100100.56;4996845;28;20197;-77
2022/05/12 01:00:53;;;;;;;3.57;3.10;;;;;;;20.48;74.87;100103.44;5002890;28;20192;-76
2022/05/12 01:03:21;;;;;;;3.53;2.57;;;;;;;20.45;75.09;100102.78;5001022;28;20286;-77
2022/05/12 01:05:47;;;;;;;3.10;2.70;;;;;;;20.38;75.22;100100.47;4997506;28;20204;-77
2022/05/12 01:08:15;;;;;;;3.13;2.93;;;;;;;20.34;75.77;100105.97;4999672;28;20208;-76
2022/05/12 01:10:45;;;;;;;4.70;3.27;;;;;;;20.30;76.01;100110.53;5000701;28;20282;-76
2022/05/12 01:13:10;;;;;;;6.20;2.60;;;;;;;20.25;76.67;100113.41;4996941;28;21111;-75
2022/05/12 01:15:36;;;;;;;3.10;2.70;;;;;;;20.21;76.77;100111.88;4998405;28;20208;-76
2022/05/12 01:18:15;;;;;;;4.30;3.07;;;;;;;20.21;77.29;100118.88;4999481;28;20184;-77
2022/05/12 01:20:41;;;;;;;3.07;2.77;;;;;;;20.22;77.71;100125.84;5006138;28;20185;-76
2022/05/12 01:23:22;;;;;;;3.67;2.67;;;;;;;20.24;77.77;100131.88;5000602;28;20311;-77
2022/05/12 01:25:47;;;;;;;2.87;2.67;;;;;;;20.23;77.94;100131.03;4996002;28;20222;-76
2022/05/12 01:28:12;;;;;;;3.20;2.90;;;;;;;20.26;78.16;100135.28;5000648;28;20194;-76
2022/05/12 01:30:38;;;;;;;3.07;2.77;;;;;;;20.27;78.22;100136.13;4998050;28;20402;-75
2022/05/12 01:33:04;;;;;;;2.93;2.73;;;;;;;20.26;78.15;100140.53;4996166;28;20192;-77
2022/05/12 01:35:32;;;;;;;3.50;3.20;;;;;;;20.24;78.54;100151.13;5001642;28;20735;-77
2022/05/12 01:37:58;;;;;;;3.57;2.87;;;;;;;20.25;78.97;100158.09;4997181;28;20564;-75
2022/05/12 01:40:25;;;;;;;3.10;2.63;;;;;;;20.28;79.43;100159.69;4995251;28;20193;-77
2022/05/12 01:42:53;;;;;;;3.07;2.77;;;;;;;20.28;79.28;100166.72;4993453;28;20196;-76
2022/05/12 01:45:19;;;;;;;3.27;2.63;;;;;;;20.30;79.20;100168.34;5003964;28;20714;-76
2022/05/12 01:47:46;;;;;;;3.23;2.40;;;;;;;20.29;79.55;100161.41;4999180;28;20588;-76
2022/05/12 01:50:13;;;;;;;3.40;2.23;;;;;;;20.30;79.62;100167.47;4996549;28;20262;-75
2022/05/12 01:52:43;;;;;;;3.43;1.83;;;;;;;20.30;79.94;100167.47;5003120;28;20250;-76
2022/05/12 01:55:10;;;;;;;2.37;2.17;;;;;;;20.33;79.91;100172.59;5002553;28;20205;-77
2022/05/12 01:57:35;;;;;;;4.77;2.50;;;;;;;20.34;79.73;100171.66;5001382;28;20216;-76
2022/05/12 02:00:00;;;;;;;2.87;2.10;;;;;;;20.32;79.69;100178.78;4996128;28;20223;-76
2022/05/12 02:02:28;;;;;;;2.90;2.03;;;;;;;20.31;80.07;100185.81;5001369;28;20195;-76
2022/05/12 02:04:53;;;;;;;2.87;2.00;;;;;;;20.34;79.97;100187.44;5001092;28;20218;-75
2022/05/12 02:07:18;;;;;;;2.90;2.10;;;;;;;20.34;80.04;100183.03;5000932;28;20213;-77
2022/05/12 02:09:44;;;;;;;2.53;2.13;;;;;;;20.37;80.54;100187.28;5000937;28;20192;-76
2022/05/12 02:12:09;;;;;;;2.47;1.90;;;;;;;20.37;80.38;100188.13;4999839;28;20205;-77
2022/05/12 02:14:35;;;;;;;3.63;2.30;;;;;;;20.40;80.11;100195.84;5006523;28;20675;-76
2022/05/12 02:17:01;;;;;;;4.73;2.13;;;;;;;20.43;80.13;100199.25;5009774;28;20180;-76
2022/05/12 02:19:27;;;;;;;2.20;2.00;;;;;;;20.39;80.55;100204.66;5008274;28;20185;-77
2022/05/12 02:21:54;;;;;;;2.47;2.07;;;;;;;20.38;80.46;100216.09;5007721;28;20199;-75
2022/05/12 02:24:20;;;;;;;3.47;1.90;;;;;;;20.38;80.63;100218.72;5003221;28;20200;-77
2022/05/12 02:26:45;;;;;;;1.97;1.77;;;;;;;20.36;80.80;100215.31;5001112;28;20217;-77
2022/05/12 02:29:11;;;;;;;2.60;2.00;;;;;;;20.37;80.65;100219.66;5008927;28;20195;-76
2022/05/12 02:31:36;;;;;;;2.20;2.00;;;;;;;20.37;81.04;100235.41;5007821;28;20192;-76
2022/05/12 02:34:02;;;;;;;4.40;2.47;;;;;;;20.37;80.98;100232.78;5008338;28;20299;-75
2022/05/12 02:36:27;;;;;;;3.47;2.20;;;;;;;20.37;80.79;100235.41;5004533;28;20223;-76
2022/05/12 02:38:52;;;;;;;1.90;1.70;;;;;;;20.37;80.91;100247.72;5001940;28;20455;-74
2022/05/12 02:41:18;;;;;;;2.30;2.10;;;;;;;20.35;80.90;100239.06;5006873;28;20196;-75
2022/05/12 02:43:43;;;;;;;2.13;1.63;;;;;;;20.35;80.78;100258.28;5009319;28;20198;-77
2022/05/12 02:46:12;;;;;;;2.40;2.13;;;;;;;20.33;80.77;100262.81;5005962;28;20639;-77
2022/05/12 02:48:45;;;;;;;2.03;1.53;;;;;;;20.32;80.67;100263.72;4998103;28;20667;-75
2022/05/12 02:51:11;;;;;;;1.80;1.70;;;;;;;20.27;80.90;100264.88;4999658;28;20204;-76
2022/05/12 02:53:37;;;;;;;2.43;1.80;;;;;;;20.21;80.93;100274.78;5006767;28;20604;-76
2022/05/12 02:56:04;;;;;;;1.70;1.60;;;;;;;20.16;81.01;100275.94;5005044;28;20212;-77
2022/05/12 02:58:31;;;;;;;1.93;1.47;;;;;;;20.09;81.34;100278.84;5000863;28;20199;-76
2022/05/12 03:00:57;;;;;;;1.40;1.30;;;;;;;20.03;81.78;100275.66;5004089;28;20199;-75
2022/05/12 03:03:22;;;;;;;1.87;1.60;;;;;;;19.97;81.81;100279.44;5005836;28;20213;-76
2022/05/12 03:05:51;;;;;;;1.63;1.53;;;;;;;19.94;81.76;100279.59;4999414;28;20356;-76
2022/05/12 03:08:16;;;;;;;1.70;1.60;;;;;;;19.91;82.01;100277.97;4998323;28;20202;-76
2022/05/12 03:10:42;;;;;;;3.67;2.00;;;;;;;19.88;82.13;100272.03;5000770;28;20647;-76
2022/05/12 03:13:07;;;;;;;2.30;1.73;;;;;;;19.82;82.31;100269.66;5002480;28;20186;-78
2022/05/12 03:15:33;;;;;;;3.23;1.57;;;;;;;19.75;82.15;100275.19;5004391;28;20216;-75
2022/05/12 03:17:59;;;;;;;4.23;1.70;;;;;;;19.70;82.48;100278.94;4997202;28;20551;-77
2022/05/12 03:20:26;;;;;;;2.17;1.50;;;;;;;19.65;82.93;100281.81;4996178;28;20278;-76
2022/05/12 03:22:52;;;;;;;2.40;1.53;;;;;;;19.61;82.93;100285.47;5005157;28;20651;-76
2022/05/12 03:25:20;;;;;;;2.00;1.70;;;;;;;19.55;83.01;100285.78;5003420;28;20249;-78
2022/05/12 03:27:46;;;;;;;1.70;1.50;;;;;;;19.47;83.70;100289.59;5005689;28;20205;-76
2022/05/12 03:30:15;;;;;;;1.73;1.47;;;;;;;19.40;83.93;100287.34;5008402;28;20184;-76
2022/05/12 03:32:40;;;;;;;1.83;1.40;;;;;;;19.34;84.10;100288.47;5002254;28;20311;-76
2022/05/12 03:35:07;;;;;;;1.60;1.50;;;;;;;19.28;84.22;100299.25;4998110;28;20200;-76
2022/05/12 03:37:33;;;;;;;1.40;1.30;;;;;;;19.21;84.29;100306.53;4998253;28;20180;-75
2022/05/12 03:39:58;;;;;;;1.53;1.43;;;;;;;19.16;84.74;100298.03;5002524;28;20218;-76
2022/05/12 03:42:23;;;;;;;1.50;1.40;;;;;;;19.11;84.81;100307.88;5002984;28;20219;-75
2022/05/12 03:44:58;;;;;;;2.07;1.53;;;;;;;19.05;85.21;100303.75;5004455;28;20217;-76
2022/05/12 03:47:30;;;;;;;1.67;1.57;;;;;;;19.01;85.72;100310.03;5001012;28;20210;-76
2022/05/12 03:50:00;;;;;;;2.50;1.60;;;;;;;18.97;85.49;100316.34;5002339;28;20880;-76
2022/05/12 03:52:26;;;;;;;1.60;1.47;;;;;;;18.92;85.87;100321.75;5000969;28;20182;-78
2022/05/12 03:54:51;;;;;;;2.13;1.50;;;;;;;18.88;86.10;100326.28;5001725;28;20201;-76
2022/05/12 03:57:19;;;;;;;2.80;1.60;;;;;;;18.86;86.56;100332.50;5000199;28;20563;-76
2022/05/12 03:59:48;;;;;;;2.47;1.83;;;;;;;18.84;86.77;100329.94;5002658;28;20181;-76
2022/05/12 04:02:14;;;;;;;1.83;1.60;;;;;;;18.79;86.99;100334.56;4996572;28;20184;-75
2022/05/12 04:04:41;;;;;;;2.10;1.70;;;;;;;18.74;87.12;100332.13;5004666;28;20297;-76
2022/05/12 04:07:07;;;;;;;2.27;1.80;;;;;;;18.73;87.18;100333.03;5000493;28;20202;-76
2022/05/12 04:09:33;;;;;;;1.73;1.50;;;;;;;18.76;87.01;100339.03;5003921;28;20670;-76
2022/05/12 04:11:58;;;;;;;1.93;1.67;;;;;;;18.77;87.19;100348.63;5019562;28;20238;-76
2022/05/12 04:14:24;;;;;;;2.70;1.53;;;;;;;18.74;87.64;100349.59;5002408;28;20219;-75
2022/05/12 04:16:49;;;;;;;2.27;1.30;;;;;;;18.74;87.60;100347.00;4996630;28;20856;-76
2022/05/12 04:19:15;;;;;;;1.70;1.60;;;;;;;18.76;87.64;100347.78;4998100;28;20214;-76
2022/05/12 04:21:40;;;;;;;1.50;1.40;;;;;;;18.80;87.97;100366.84;5005973;28;20255;-76
2022/05/12 04:24:08;;;;;;;2.73;1.50;;;;;;;18.86;87.65;100367.44;4994201;28;20178;-75
2022/05/12 04:26:38;;;;;;;2.10;1.60;;;;;;;18.96;87.56;100373.19;5002646;28;20353;-75
2022/05/12 04:29:05;;;;;;;1.57;1.40;;;;;;;19.06;87.37;100385.91;5002402;28;20217;-77
2022/05/12 04:31:30;;;;;;;1.50;1.40;;;;;;;19.13;87.66;100377.72;5003809;28;20192;-76
2022/05/12 04:36:41;;;;;;;1.70;1.53;;;;;;;19.25;87.28;100388.59;5001761;28;20575;-76
2022/05/12 04:39:08;;;;;;;1.97;1.70;;;;;;;19.31;87.07;100388.31;5002524;28;20200;-74
2022/05/12 04:41:34;;;;;;;1.63;1.53;;;;;;;19.33;87.55;100381.22;5000673;28;20215;-78
2022/05/12 04:43:59;;;;;;;2.40;1.60;;;;;;;19.42;86.92;100395.72;4989833;28;20662;-77
2022/05/12 04:46:26;;;;;;;1.53;1.30;;;;;;;19.46;87.03;100385.00;5000221;28;20211;-76
2022/05/12 04:48:52;;;;;;;1.73;1.40;;;;;;;19.50;87.22;100389.19;5002560;28;20183;-76
2022/05/12 04:51:18;;;;;;;2.00;1.60;;;;;;;19.54;87.29;100394.31;4994220;28;20197;-76
2022/05/12 04:53:43;;;;;;;2.47;1.90;;;;;;;19.56;87.39;100392.50;4998078;28;20180;-76
2022/05/12 04:56:09;;;;;;;1.50;1.40;;;;;;;19.62;87.37;100393.06;4999260;28;20199;-76
2022/05/12 04:58:34;;;;;;;1.80;1.70;;;;;;;19.72;87.06;100400.50;4996769;28;21200;-76
2022/05/12 05:01:00;;;;;;;1.87;1.73;;;;;;;19.84;86.91;100410.44;5000079;28;20203;-76
2022/05/12 05:03:25;;;;;;;3.60;1.80;;;;;;;19.94;86.30;100409.16;5002840;28;20282;-77
2022/05/12 05:05:51;;;;;;;4.63;2.00;;;;;;;20.01;86.14;100414.09;4995811;28;20206;-76
2022/05/12 05:08:19;;;;;;;3.33;1.80;;;;;;;20.01;86.17;100409.72;4996848;28;20188;-76
2022/05/12 05:10:45;;;;;;;2.37;2.00;;;;;;;19.98;86.63;100415.09;5003418;28;20191;-75
2022/05/12 05:13:10;;;;;;;3.10;1.93;;;;;;;19.94;86.75;100424.91;4995655;28;20198;-76
2022/05/12 05:15:36;;;;;;;1.60;1.50;;;;;;;19.91;87.21;100426.81;4998300;28;20687;-76
2022/05/12 05:18:02;;;;;;;1.63;1.53;;;;;;;19.89;87.34;100436.56;4998258;28;20208;-76
2022/05/12 05:20:29;;;;;;;2.07;1.53;;;;;;;19.89;87.37;100440.03;4988707;28;20201;-75
2022/05/12 05:22:54;;;;;;;1.83;1.50;;;;;;;19.91;87.54;100442.56;4997086;28;20190;-75
2022/05/12 05:25:21;;;;;;;3.40;1.40;;;;;;;19.95;87.38;100441.50;4987374;28;20231;-77
2022/05/12 05:27:48;;;;;;;2.90;1.33;;;;;;;20.01;87.29;100448.25;4999974;28;20190;-75
2022/05/12 05:30:18;;;;;;;1.70;1.50;;;;;;;20.05;87.26;100450.66;5004152;28;20191;-75
2022/05/12 05:32:44;;;;;;;2.20;1.50;;;;;;;20.12;87.14;100463.53;5005522;28;20630;-75
2022/05/12 05:35:12;;;;;;;2.17;1.87;;;;;;;20.19;87.12;100457.09;5002766;28;20222;-77
2022/05/12 05:37:38;;;;;;;3.07;1.73;;;;;;;20.27;87.01;100461.97;5000803;28;20180;-75
2022/05/12 05:40:05;;;;;;;2.60;2.03;;;;;;;20.38;86.42;100471.03;4995385;28;20195;-76
2022/05/12 05:42:31;;;;;;;2.20;1.93;;;;;;;20.50;86.46;100466.13;4994879;28;20677;-77
2022/05/12 05:44:56;;;;;;;2.80;1.90;;;;;;;20.60;86.42;100479.69;4997360;28;20200;-76
2022/05/12 05:47:22;;;;;;;2.63;1.70;;;;;;;20.69;85.68;100477.47;5005664;28;20272;-77
2022/05/12 05:49:47;;;;;;;2.00;1.70;;;;;;;20.83;85.72;100483.88;5000640;28;20184;-76
2022/05/12 05:54:56;;;;;;;1.50;1.40;;;;;;;21.05;84.45;100488.91;4995007;28;20645;-79
2022/05/12 05:57:24;;;;;;;1.73;1.63;;;;;;;21.10;84.57;100489.56;5004079;28;20205;-76
2022/05/12 05:59:55;;;;;;;1.60;1.50;;;;;;;21.16;84.28;100497.16;5000221;28;20615;-75
2022/05/12 06:02:22;;;;;;;1.63;1.53;;;;;;;21.21;84.12;100502.19;4999718;28;20192;-79
2022/05/12 06:04:47;;;;;;;1.67;1.50;;;;;;;21.29;83.99;100501.78;4996478;28;20647;-75
2022/05/12 06:07:13;;;;;;;1.43;1.33;;;;;;;21.35;83.61;100508.53;5000679;28;20204;-75
2022/05/12 06:09:40;;;;;;;2.33;1.30;;;;;;;21.40;83.52;100512.63;5008967;28;20177;-76
2022/05/12 06:12:07;;;;;;;1.77;1.30;;;;;;;21.44;83.42;100508.03;4999234;28;20181;-75
2022/05/12 06:14:33;;;;;;;1.77;1.30;;;;;;;21.45;83.42;100521.16;4995606;28;20205;-75
2022/05/12 06:16:58;;;;;;;2.33;1.40;;;;;;;21.45;83.77;100518.50;5007646;28;20224;-76
2022/05/12 06:19:24;;;;;;;2.90;1.50;;;;;;;21.44;83.86;100519.44;5000144;28;20180;-76
2022/05/12 06:21:49;;;;;;;2.10;1.57;;;;;;;21.40;84.15;100517.88;5006308;28;20529;-76
2022/05/12 06:24:15;;;;;;;1.43;1.00;;;;;;;21.37;84.52;100517.19;4994538;28;20272;-80
2022/05/12 06:26:40;;;;;;;1.77;1.60;;;;;;;21.34;84.78;100519.97;5004299;28;20208;-75
2022/05/12 06:29:06;;;;;;;2.03;1.60;;;;;;;21.28;84.72;100521.97;4998165;28;20276;-76
2022/05/12 06:31:33;;;;;;;2.20;1.40;;;;;;;21.23;84.83;100528.41;5004871;28;20199;-75
2022/05/12 06:33:58;;;;;;;2.23;1.27;;;;;;;21.16;85.03;100528.72;5009003;28;20188;-75
2022/05/12 06:36:24;;;;;;;2.60;1.77;;;;;;;21.17;85.06;100530.44;5008647;28;20192;-77
2022/05/12 06:38:50;;;;;;;3.43;1.60;;;;;;;21.19;84.84;100535.59;4996061;28;20660;-76
2022/05/12 06:41:16;;;;;;;1.83;1.43;;;;;;;21.20;84.97;100537.31;5007819;28;20197;-78
2022/05/12 06:43:45;;;;;;;2.90;1.37;;;;;;;21.19;85.10;100537.38;5007463;28;20342;-75
2022/05/12 06:46:12;;;;;;;2.00;1.40;;;;;;;21.21;85.02;100540.78;4997309;28;20215;-78
2022/05/12 06:48:37;;;;;;;3.30;1.70;;;;;;;21.27;84.66;100551.84;5006348;28;20180;-78
2022/05/12 06:51:03;;;;;;;1.60;1.40;;;;;;;21.32;84.82;100552.50;5009732;28;20181;-75
2022/05/12 06:53:29;;;;;;;4.13;1.67;;;;;;;21.40;84.38;100551.28;5002439;28;20961;-76
2022/05/12 06:55:54;;;;;;;2.90;1.40;;;;;;;21.44;84.43;100550.16;4998762;28;20196;-76
2022/05/12 06:58:20;;;;;;;2.50;1.60;;;;;;;21.48;84.35;100565.72;5004113;28;20211;-77
2022/05/12 07:00:45;;;;;;;2.30;1.50;;;;;;;21.54;84.03;100561.09;5004873;28;20239;-77
2022/05/12 07:03:13;;;;;;;1.40;1.30;;;;;;;21.62;84.19;100561.59;5000646;28;20267;-77
2022/05/12 07:05:39;;;;;;;3.53;1.67;;;;;;;21.74;82.79;100566.25;5006316;28;20669;-76
2022/05/12 07:08:06;;;;;;;1.87;1.50;;;;;;;21.86;82.70;100572.63;5000553;28;20209;-76
2022/05/12 07:10:32;;;;;;;2.63;1.50;;;;;;;22.19;81.73;100568.31;5007640;28;20917;-77
2022/05/12 07:12:58;;;;;;;2.77;1.50;;;;;;;22.36;81.24;100585.88;5000172;28;20528;-77
2022/05/12 07:15:27;;;;;;;1.90;1.10;;;;;;;22.54;80.96;100578.75;5000181;28;20205;-76
2022/05/12 07:17:56;;;;;;;1.87;1.40;;;;;;;22.66;80.38;100578.13;5003312;28;20181;-76
2022/05/12 07:28:36;;;;;;;2.53;1.40;;;;;;;24.28;75.94;100568.81;4999203;28;20203;-76
2022/05/12 07:31:05;;;;;;;3.00;1.47;;;;;;;24.47;75.34;100572.00;5003137;28;20737;-76
2022/05/12 07:33:34;;;;;;;1.47;1.20;;;;;;;24.98;74.23;100570.56;5015932;28;20183;-76
2022/05/12 07:36:02;;;;;;;1.60;1.40;;;;;;;25.56;72.55;100560.56;4991928;28;20209;-76
2022/05/12 07:38:27;;;;;;;1.73;1.30;;;;;;;26.05;70.53;100557.28;5009735;28;20574;-77
2022/05/12 07:40:53;;;;;;;1.70;1.30;;;;;;;26.39;68.99;100558.44;4995355;28;20193;-76
2022/05/12 07:43:20;;;;;;;2.27;1.10;;;;;;;26.53;68.82;100568.06;5000503;28;20188;-76
2022/05/12 07:45:45;;;;;;;1.80;1.13;;;;;;;26.55;69.49;100566.16;4995640;28;20192;-77
2022/05/12 07:48:11;;;;;;;1.63;1.30;;;;;;;26.41;69.73;100564.47;4997643;28;20205;-76
2022/05/12 07:50:39;;;;;;;3.73;1.40;;;;;;;26.12;70.36;100567.38;5004022;28;20184;-76
2022/05/12 07:53:04;;;;;;;1.70;1.43;;;;;;;25.97;70.92;100565.78;5007241;28;20542;-77
2022/05/12 07:55:30;;;;;;;1.93;1.17;;;;;;;25.98;70.59;100568.34;5004418;28;20263;-78
2022/05/12 07:57:55;;;;;;;1.37;1.10;;;;;;;26.13;70.08;100568.25;5000187;28;20188;-76
2022/05/12 08:00:21;;;;;;;1.77;1.20;;;;;;;26.30;69.81;100570.56;5004091;28;20188;-77
2022/05/12 08:02:46;;;;;;;3.37;1.20;;;;;;;26.47;69.64;100571.16;4999892;28;20198;-77
2022/05/12 08:05:11;;;;;;;2.10;1.30;;;;;;;26.58;68.62;100570.38;4999959;28;21034;-76
2022/05/12 08:07:37;;;;;;;3.67;1.60;;;;;;;26.59;69.12;100569.41;5004138;28;20210;-77
2022/05/12 08:10:05;;;;;;;4.67;1.70;;;;;;;26.55;69.35;100576.75;5009511;28;20180;-76
2022/05/12 08:12:30;;;;;;;1.83;1.17;;;;;;;26.54;69.82;100576.88;5000739;28;20563;-76
2022/05/12 08:14:56;;;;;;;2.53;1.43;;;;;;;26.45;69.89;100576.56;5008603;28;20204;-76
2022/05/12 08:17:21;;;;;;;2.23;1.60;;;;;;;26.38;70.35;100580.63;4997524;28;20235;-78
2022/05/12 08:19:47;;;;;;;2.07;1.50;;;;;;;26.28;70.21;100582.22;5002320;28;20185;-76
2022/05/12 08:22:12;;;;;;;1.70;1.13;;;;;;;26.29;70.45;100582.13;5004591;28;20187;-78
2022/05/12 08:24:38;;;;;;;3.63;1.20;;;;;;;26.42;70.08;100590.06;5009356;28;20223;-76
2022/05/12 08:27:03;;;;;;;3.03;1.70;;;;;;;26.33;70.01;100585.41;5002588;28;20204;-76
2022/05/12 08:29:29;;;;;;;1.77;1.47;;;;;;;26.20;70.41;100581.94;5005417;28;20184;-76
2022/05/12 08:31:54;;;;;;;2.10;1.50;;;;;;;26.07;71.12;100585.41;5003323;28;20187;-77
2022/05/12 08:34:20;;;;;;;2.03;1.30;;;;;;;26.06;71.44;100593.47;5004493;28;20706;-78
2022/05/12 08:36:45;;;;;;;1.53;1.30;;;;;;;25.97;71.20;100589.63;5002307;28;20181;-77
2022/05/12 08:39:10;;;;;;;1.97;1.30;;;;;;;25.74;71.42;100596.53;4996321;28;20204;-78
2022/05/12 08:41:42;;;;;;;1.93;1.37;;;;;;;25.49;71.62;100587.59;5005769;28;20544;-78
2022/05/12 08:44:13;;;;;;;1.20;1.10;;;;;;;25.32;71.79;100604.59;4996572;28;20184;-76
2022/05/12 08:46:57;;;;;;;1.87;1.40;;;;;;;25.31;70.71;100587.00;5004686;28;20208;-77
2022/05/12 08:49:38;;;;;;;1.87;1.27;;;;;;;25.27;71.34;100603.09;5002420;28;20622;-78
2022/05/12 08:52:15;;;;;;;2.00;1.27;;;;;;;25.26;71.71;100592.56;4998182;28;20179;-77
2022/05/12 08:54:47;;;;;;;5.57;1.63;;;;;;;25.32;71.86;100591.34;5008421;28;20208;-79
2022/05/12 08:57:42;;;;;;;2.37;1.30;;;;;;;25.31;71.91;100597.59;4996931;28;20695;-77
2022/05/12 09:00:12;;;;;;;3.83;1.50;;;;;;;25.49;71.83;100591.06;5003084;28;20203;-77
2022/05/12 09:03:07;;;;;;;1.27;1.17;;;;;;;25.79;71.48;100595.25;4996026;28;20185;-78
2022/05/12 09:05:42;;;;;;;1.87;1.50;;;;;;;26.03;70.16;100586.56;5001197;28;20274;-76
2022/05/12 09:08:44;;;;;;;2.40;1.10;;;;;;;26.06;70.03;100594.31;4998686;28;20287;-77
2022/05/12 09:11:27;;;;;;;2.43;1.40;;;;;;;26.09;70.51;100586.13;5004454;28;20180;-79
2022/05/12 09:13:54;;;;;;;1.73;1.50;;;;;;;26.33;69.69;100596.03;4997947;28;20231;-77
2022/05/12 09:16:24;;;;;;;2.97;1.30;;;;;;;26.62;69.25;100585.13;4996464;28;20197;-77
2022/05/12 09:18:53;;;;;;;1.80;1.33;;;;;;;26.83;68.60;100588.06;4997466;28;20235;-78
2022/05/12 09:21:23;;;;;;;2.47;1.50;;;;;;;27.05;68.72;100589.16;5003778;28;20211;-78
2022/05/12 09:23:49;;;;;;;2.00;1.40;;;;;;;27.30;67.23;100590.81;5007752;28;20181;-77
2022/05/12 09:26:33;;;;;;;2.53;1.60;;;;;;;27.43;67.49;100588.09;5002715;28;20239;-77
2022/05/12 09:29:31;;;;;;;2.43;1.43;;;;;;;27.48;66.98;100593.94;5017555;28;20204;-76
2022/05/12 09:32:15;;;;;;;1.97;1.40;;;;;;;27.22;67.23;100580.78;5000901;28;20283;-77
2022/05/12 09:34:46;;;;;;;4.67;2.20;;;;;;;27.03;66.98;100575.13;5002484;28;20307;-79
2022/05/12 09:37:42;;;;;;;6.60;2.60;;;;;;;26.77;66.45;100581.38;5009373;28;20205;-78
2022/05/12 09:40:15;;;;;;;3.67;2.07;;;;;;;26.50;67.57;100583.38;5007427;28;20235;-77
2022/05/12 09:42:53;;;;;;;2.37;1.97;;;;;;;26.31;68.50;100576.72;4998750;28;20185;-78
2022/05/12 09:45:21;;;;;;;2.37;1.63;;;;;;;26.13;69.10;100574.38;5000985;28;20242;-77
2022/05/12 09:47:46;;;;;;;2.20;1.40;;;;;;;25.97;69.28;100568.44;4995817;28;20205;-77
2022/05/12 09:50:21;;;;;;;1.50;1.40;;;;;;;25.68;69.15;100573.94;5003149;28;20536;-77
2022/05/12 09:52:55;;;;;;;1.57;1.40;;;;;;;25.55;69.86;100574.78;5007717;28;20184;-78
2022/05/12 09:55:23;;;;;;;2.13;1.80;;;;;;;25.63;70.57;100574.25;5002478;28;20216;-77
2022/05/12 09:57:52;;;;;;;2.30;1.50;;;;;;;25.86;70.16;100567.38;5008880;28;20176;-77
2022/05/12 10:00:38;;;;;;;1.83;1.60;;;;;;;26.18;69.83;100560.81;5005819;28;20196;-77
2022/05/12 10:09:09;;;;;;;2.50;1.93;;;;;;;27.19;67.75;100556.22;5007622;28;20226;-77
2022/05/12 10:11:43;;;;;;;2.40;1.60;;;;;;;27.32;67.39;100549.03;5003962;28;20539;-77
2022/05/12 10:14:19;;;;;;;1.77;1.37;;;;;;;27.32;67.58;100558.81;5000848;28;20528;-77
2022/05/12 10:16:46;;;;;;;1.50;1.37;;;;;;;27.31;67.28;100560.63;5003566;28;20219;-77
2022/05/12 10:19:20;;;;;;;1.50;1.30;;;;;;;27.33;67.32;100565.84;4999808;28;20258;-78
2022/05/12 10:22:04;;;;;;;1.83;1.60;;;;;;;27.21;67.29;100556.97;5019575;28;20184;-77
2022/05/12 10:24:57;;;;;;;4.03;2.00;;;;;;;26.95;67.62;100554.44;5003107;28;20211;-78
2022/05/12 10:27:38;;;;;;;2.10;1.43;;;;;;;26.89;67.35;100553.09;5001014;28;20217;-78
2022/05/12 10:30:39;;;;;;;3.93;1.73;;;;;;;26.78;66.41;100558.31;5007406;28;20792;-77
2022/05/12 10:33:23;;;;;;;1.90;1.53;;;;;;;26.53;68.03;100553.97;4987125;28;20265;-77
2022/05/12 10:36:29;;;;;;;1.70;1.53;;;;;;;26.57;68.33;100550.09;5005314;28;20199;-78
2022/05/12 10:39:00;;;;;;;2.37;1.70;;;;;;;26.67;68.62;100555.59;5000889;28;20196;-77
2022/05/12 10:41:30;;;;;;;2.33;1.70;;;;;;;26.59;68.83;100548.19;4997567;28;20203;-77
2022/05/12 10:44:29;;;;;;;2.07;1.40;;;;;;;26.38;69.37;100550.59;5009699;28;20180;-78
2022/05/12 10:47:01;;;;;;;2.37;1.50;;;;;;;26.17;69.12;100551.16;5001891;28;20217;-78
2022/05/12 10:49:54;;;;;;;2.20;1.47;;;;;;;25.97;69.35;100536.59;5001352;28;20196;-78
2022/05/12 10:52:24;;;;;;;2.37;1.70;;;;;;;25.95;68.88;100535.88;4997350;28;20193;-77
2022/05/12 10:55:11;;;;;;;1.40;1.30;;;;;;;25.83;69.77;100534.94;5004647;28;20215;-76
2022/05/12 10:58:19;;;;;;;2.27;1.90;;;;;;;25.84;70.14;100539.28;5003403;28;20250;-77
2022/05/12 11:01:11;;;;;;;3.30;1.50;;;;;;;25.95;69.93;100530.56;5011651;28;20188;-76
2022/05/12 11:03:43;;;;;;;2.40;1.70;;;;;;;26.02;69.68;100521.22;5008050;28;20188;-77
2022/05/12 11:06:13;;;;;;;3.47;1.67;;;;;;;25.97;70.09;100521.56;5011840;28;20242;-76
2022/05/12 11:08:46;;;;;;;3.10;1.43;;;;;;;25.86;70.32;100519.66;5016509;28;20187;-75
2022/05/12 11:11:16;;;;;;;2.10;1.90;;;;;;;25.87;70.06;100513.41;5003258;28;20239;-77
2022/05/12 11:13:45;;;;;;;2.70;1.70;;;;;;;25.93;70.77;100512.13;5009499;28;20211;-75
2022/05/12 11:16:13;;;;;;;1.63;1.50;;;;;;;26.11;70.31;100517.13;4996778;28;20217;-77
2022/05/12 11:19:03;;;;;;;2.67;1.57;;;;;;;26.25;69.86;100510.81;5001006;28;20628;-77
2022/05/12 11:21:30;;;;;;;1.63;1.50;;;;;;;26.34;69.90;100507.50;4998683;28;20200;-77
2022/05/12 11:24:11;;;;;;;1.70;1.57;;;;;;;26.42;70.05;100515.75;5011334;28;20185;-76
2022/05/12 11:26:49;;;;;;;2.00;1.50;;;;;;;26.55;69.41;100515.72;5023780;28;20300;-76
2022/05/12 11:29:44;;;;;;;2.87;1.77;;;;;;;26.54;69.23;100514.03;5003250;28;20654;-76
2022/05/12 11:32:33;;;;;;;3.43;1.80;;;;;;;26.58;69.69;100522.59;4998497;28;20227;-76
2022/05/12 11:35:21;;;;;;;2.70;1.60;;;;;;;26.71;69.83;100507.47;5006045;28;20215;-76
2022/05/12 11:38:01;;;;;;;1.80;1.50;;;;;;;26.85;69.29;100508.31;5001503;28;20184;-77
2022/05/12 11:40:43;;;;;;;3.07;2.00;;;;;;;26.98;69.03;100505.56;5009770;28;20215;-76
2022/05/12 11:46:34;;;;;;;2.20;1.53;;;;;;;27.28;68.66;100498.91;5005542;28;20211;-75
2022/05/12 11:49:04;;;;;;;1.93;1.70;;;;;;;27.64;68.36;100500.56;5008272;28;20188;-77
2022/05/12 11:51:52;;;;;;;1.63;1.53;;;;;;;27.93;67.81;100499.25;5007319;28;20595;-76
2022/05/12 11:54:23;;;;;;;2.00;1.63;;;;;;;28.06;66.43;100501.78;5004889;28;20181;-76
2022/05/12 11:56:53;;;;;;;1.83;1.50;;;;;;;28.08;66.44;100499.81;5009538;28;20184;-76
2022/05/12 11:59:30;;;;;;;2.33;1.50;;;;;;;28.09;66.30;100497.09;5003362;28;20191;-79